createdAt,value
2023-03-05T00:01:22.910Z,0.67
2023-03-05T00:06:28.176Z,0.57
2023-03-05T00:11:31.885Z,0.50
2023-03-05T00:16:34.240Z,0.47
2023-03-05T00:21:41.071Z,0.53
2023-03-05T00:26:43.545Z,0.45
2023-03-05T00:31:46.022Z,0.44
2023-03-05T00:36:50.490Z,0.49
2023-03-05T00:41:53.297Z,0.49
2023-03-05T00:46:55.371Z,0.42
2023-03-05T00:51:57.454Z,0.33
2023-03-05T00:56:59.580Z,0.32
2023-03-05T01:02:01.848Z,0.41
2023-03-05T01:07:05.192Z,0.33
2023-03-05T01:12:08.139Z,0.30
2023-03-05T01:17:10.176Z,0.17
2023-03-05T01:22:12.700Z,0.23
2023-03-05T01:27:14.895Z,0.07
2023-03-05T01:32:17.186Z,0.00
2023-03-05T01:37:19.356Z,0.01
2023-03-05T01:42:21.433Z,-0.13
2023-03-05T01:47:23.497Z,-0.14
2023-03-05T01:52:28.650Z,-0.13
2023-03-05T01:57:38.343Z,-0.17
2023-03-05T02:02:42.900Z,-0.25
2023-03-05T02:07:45.435Z,-0.10
2023-03-05T02:12:49.402Z,-0.17
2023-03-05T02:18:11.654Z,-0.13
2023-03-05T02:23:14.163Z,-0.33
2023-03-05T02:28:28.700Z,-0.30
2023-03-05T02:33:31.104Z,-0.33
2023-03-05T02:38:33.549Z,-0.44
2023-03-05T02:43:35.678Z,-0.57
2023-03-05T02:48:38.504Z,-0.59
2023-03-05T02:53:40.680Z,-0.57
2023-03-05T02:58:43.113Z,-0.49
2023-03-05T03:03:45.312Z,-0.48
2023-03-05T03:08:47.352Z,-0.50
2023-03-05T03:13:49.413Z,-0.39
2023-03-05T03:18:51.426Z,-0.44
2023-03-05T03:23:53.797Z,-0.52
2023-03-05T03:28:55.772Z,-0.63
2023-03-05T03:33:57.797Z,-0.61
2023-03-05T03:38:59.820Z,-0.57
2023-03-05T03:44:03.595Z,-0.62
2023-03-05T03:49:06.796Z,-0.63
2023-03-05T03:54:08.853Z,-0.65
2023-03-05T03:59:11.913Z,-0.58
2023-03-05T04:04:14.701Z,-0.58
2023-03-05T04:09:16.926Z,-0.54
2023-03-05T04:14:18.947Z,-0.55
2023-03-05T04:19:21.824Z,-0.43
2023-03-05T04:24:23.924Z,-0.48
2023-03-05T04:29:26.276Z,-0.52
2023-03-05T04:34:28.716Z,-0.51
2023-03-05T04:39:30.925Z,-0.45
2023-03-05T04:44:32.965Z,-0.40
2023-03-05T04:49:35.080Z,-0.37
2023-03-05T04:54:37.276Z,-0.34
2023-03-05T04:59:39.442Z,-0.24
2023-03-05T05:04:45.150Z,-0.19
2023-03-05T05:09:47.443Z,-0.13
2023-03-05T05:14:49.569Z,-0.06
2023-03-05T05:19:51.643Z,0.07
2023-03-05T05:24:53.764Z,0.13
2023-03-05T05:29:56.156Z,0.10
2023-03-05T05:34:59.149Z,-0.03
2023-03-05T05:40:01.268Z,-0.02
2023-03-05T05:45:03.753Z,-0.06
2023-03-05T05:50:07.922Z,-0.10
2023-03-05T05:55:10.636Z,-0.10
2023-03-05T06:00:14.725Z,0.02
2023-03-05T06:05:17.470Z,-0.02
2023-03-05T06:10:19.541Z,-0.01
2023-03-05T06:15:21.533Z,0.11
2023-03-05T06:20:23.561Z,0.10
2023-03-05T06:25:25.557Z,0.18
2023-03-05T06:30:27.597Z,0.25
2023-03-05T06:35:29.704Z,0.26
2023-03-05T06:40:31.834Z,0.31
2023-03-05T06:45:33.803Z,0.41
2023-03-05T06:50:36.633Z,0.43
2023-03-05T06:55:39.904Z,0.46
2023-03-05T07:00:41.938Z,0.58
2023-03-05T07:05:44.238Z,0.67
2023-03-05T07:10:46.224Z,0.66
2023-03-05T07:15:48.305Z,0.68
2023-03-05T07:20:50.383Z,0.78
2023-03-05T07:25:52.380Z,0.95
2023-03-05T07:30:59.899Z,1.15
2023-03-05T07:36:02.058Z,1.21
2023-03-05T07:41:05.791Z,1.31
2023-03-05T07:46:11.506Z,1.70
2023-03-05T07:51:16.420Z,1.90
2023-03-05T07:56:29.097Z,2.09
2023-03-05T08:01:32.394Z,2.20
2023-03-05T08:06:34.551Z,2.20
2023-03-05T08:11:36.727Z,2.36
2023-03-05T08:16:41.188Z,2.53
2023-03-05T08:21:43.254Z,2.70
2023-03-05T08:26:45.444Z,2.78
2023-03-05T08:31:48.058Z,2.65
2023-03-05T08:36:50.342Z,2.71
2023-03-05T08:41:52.392Z,2.95
2023-03-05T08:46:54.440Z,3.37
2023-03-05T08:51:56.584Z,3.75
2023-03-05T08:56:58.680Z,4.09
2023-03-05T09:02:02.796Z,4.18
2023-03-05T09:07:05.774Z,4.01
2023-03-05T09:12:09.643Z,3.83
2023-03-05T09:17:12.777Z,3.61
2023-03-05T09:22:14.898Z,3.29
2023-03-05T09:27:16.991Z,3.25
2023-03-05T09:32:19.158Z,3.62
2023-03-05T09:37:21.250Z,3.96
2023-03-05T09:42:48.321Z,4.23
2023-03-05T09:48:01.108Z,4.42
2023-03-05T09:53:23.632Z,4.63
2023-03-05T09:58:39.040Z,4.68
2023-03-05T10:04:08.785Z,4.29
2023-03-05T10:09:10.831Z,3.81
2023-03-05T10:14:28.012Z,3.85
2023-03-05T10:19:44.899Z,3.74
2023-03-05T10:24:52.809Z,3.57
2023-03-05T10:29:57.537Z,3.53
2023-03-05T10:35:16.946Z,3.57
2023-03-05T10:40:19.093Z,3.32
2023-03-05T10:45:40.659Z,3.39
2023-03-05T10:50:50.850Z,3.31
2023-03-05T10:55:56.385Z,3.17
2023-03-05T11:01:04.466Z,3.04
2023-03-05T11:06:06.554Z,2.69
2023-03-05T11:11:08.524Z,2.46
2023-03-05T11:16:20.964Z,2.39
2023-03-05T11:21:29.330Z,2.36
2023-03-05T11:26:31.365Z,2.56
2023-03-05T11:31:34.529Z,2.83
2023-03-05T11:36:57.871Z,3.10
2023-03-05T11:42:25.505Z,3.49
2023-03-05T11:47:49.067Z,3.49
2023-03-05T11:53:13.112Z,3.32
2023-03-05T11:58:45.221Z,3.28
2023-03-05T12:03:47.642Z,3.50
2023-03-05T12:08:55.117Z,3.10
2023-03-05T12:14:35.138Z,3.09
2023-03-05T12:19:51.783Z,2.70
2023-03-05T12:24:53.847Z,2.42
2023-03-05T12:29:57.375Z,2.36
2023-03-05T12:35:04.549Z,2.36
2023-03-05T12:40:10.822Z,2.38
2023-03-05T12:45:12.816Z,2.36
2023-03-05T12:50:27.057Z,2.49
2023-03-05T12:55:33.719Z,2.42
2023-03-05T13:01:16.672Z,2.54
2023-03-05T13:06:34.225Z,2.50
2023-03-05T13:11:39.283Z,2.31
2023-03-05T13:16:41.595Z,2.29
2023-03-05T13:21:44.072Z,2.23
2023-03-05T13:26:46.384Z,2.18
2023-03-05T13:31:52.440Z,2.21
2023-03-05T13:37:03.112Z,2.19
2023-03-05T13:42:15.814Z,2.20
2023-03-05T13:47:21.384Z,2.20
2023-03-05T13:52:25.125Z,2.14
2023-03-05T13:57:51.107Z,2.27
2023-03-05T14:02:55.089Z,2.11
2023-03-05T14:07:57.235Z,1.97
2023-03-05T14:13:01.980Z,1.87
2023-03-05T14:18:13.291Z,1.83
2023-03-05T14:23:38.880Z,1.80
2023-03-05T14:28:41.004Z,1.55
2023-03-05T14:33:43.381Z,1.51
2023-03-05T14:38:45.548Z,1.49
2023-03-05T14:43:47.565Z,1.43
2023-03-05T14:48:49.688Z,1.42
2023-03-05T14:53:51.711Z,1.38
2023-03-05T14:58:54.881Z,1.36
2023-03-05T15:03:56.955Z,1.42
2023-03-05T15:09:00.732Z,1.36
2023-03-05T15:14:02.770Z,1.26
2023-03-05T15:19:04.863Z,1.25
2023-03-05T15:24:07.764Z,1.25
2023-03-05T15:29:10.767Z,1.23
2023-03-05T15:34:12.818Z,1.24
2023-03-05T15:39:14.808Z,1.23
2023-03-05T15:44:17.437Z,1.23
2023-03-05T15:49:20.448Z,1.22
2023-03-05T15:54:22.712Z,1.19
2023-03-05T15:59:25.349Z,1.21
2023-03-05T16:04:29.371Z,1.23
2023-03-05T16:09:37.295Z,1.26
2023-03-05T16:14:40.628Z,1.23
2023-03-05T16:19:46.807Z,1.24
2023-03-05T16:24:48.882Z,1.18
2023-03-05T16:29:51.300Z,1.17
2023-03-05T16:34:53.443Z,1.20
2023-03-05T16:39:58.237Z,1.25
2023-03-05T16:45:00.476Z,1.25
2023-03-05T16:50:03.280Z,1.27
2023-03-05T16:55:06.218Z,1.28
2023-03-05T17:00:10.909Z,1.33
2023-03-05T17:05:13.267Z,1.32
2023-03-05T17:10:15.573Z,1.30
2023-03-05T17:15:17.647Z,1.25
2023-03-05T17:20:20.273Z,1.25
2023-03-05T17:25:22.510Z,1.25
2023-03-05T17:30:24.604Z,1.11
2023-03-05T17:35:26.735Z,0.84
2023-03-05T17:40:29.016Z,0.60
2023-03-05T17:45:31.684Z,0.43
2023-03-05T17:50:33.810Z,0.25
2023-03-05T17:55:35.911Z,0.22
2023-03-05T18:00:38.057Z,0.08
2023-03-05T18:05:41.150Z,0.02
2023-03-05T18:10:43.162Z,-0.02
2023-03-05T18:15:47.846Z,-0.01
2023-03-05T18:20:50.046Z,0.06
2023-03-05T18:25:52.281Z,0.13
2023-03-05T18:30:54.589Z,0.11
2023-03-05T18:35:57.724Z,0.11
2023-03-05T18:41:03.036Z,0.19
2023-03-05T18:46:06.184Z,0.23
2023-03-05T18:51:14.952Z,0.40
2023-03-05T18:56:17.046Z,0.44
2023-03-05T19:01:19.334Z,0.50
2023-03-05T19:06:21.356Z,0.60
2023-03-05T19:11:23.652Z,0.69
2023-03-05T19:16:30.485Z,0.83
2023-03-05T19:21:32.862Z,0.85
2023-03-05T19:26:35.298Z,0.86
2023-03-05T19:31:38.213Z,0.79
2023-03-05T19:36:40.402Z,0.69
2023-03-05T19:41:42.580Z,0.56
2023-03-05T19:46:44.730Z,0.37
2023-03-05T19:51:47.552Z,0.25
2023-03-05T19:56:53.514Z,0.14
2023-03-05T20:01:57.651Z,0.03
2023-03-05T20:06:59.833Z,-0.04
2023-03-05T20:12:04.792Z,-0.01
2023-03-05T20:17:06.857Z,0.08
2023-03-05T20:22:08.972Z,0.24
2023-03-05T20:27:11.106Z,0.33
2023-03-05T20:32:14.473Z,0.40
2023-03-05T20:37:16.932Z,0.49
2023-03-05T20:42:19.998Z,0.56
2023-03-05T20:47:40.662Z,0.63
2023-03-05T20:52:42.741Z,0.69
2023-03-05T20:57:45.644Z,0.72
2023-03-05T21:02:47.957Z,0.73
2023-03-05T21:07:51.253Z,0.75
2023-03-05T21:12:54.201Z,0.75
2023-03-05T21:17:56.858Z,0.75
2023-03-05T21:22:59.403Z,0.64
2023-03-05T21:28:06.005Z,0.69
2023-03-05T21:33:11.370Z,0.71
2023-03-05T21:38:14.415Z,0.75
2023-03-05T21:43:18.944Z,0.72
2023-03-05T21:48:22.238Z,0.68
2023-03-05T21:53:24.381Z,0.60
2023-03-05T21:58:26.492Z,0.53
2023-03-05T22:03:29.179Z,0.56
2023-03-05T22:08:31.665Z,0.52
2023-03-05T22:13:33.885Z,0.50
2023-03-05T22:18:36.558Z,0.53
2023-03-05T22:23:38.617Z,0.54
2023-03-05T22:28:40.913Z,0.53
2023-03-05T22:33:42.928Z,0.46
2023-03-05T22:38:45.269Z,0.41
2023-03-05T22:43:48.978Z,0.41
2023-03-05T22:48:52.375Z,0.41
2023-03-05T22:53:54.420Z,0.33
2023-03-05T22:58:57.478Z,0.29
2023-03-05T23:04:05.013Z,0.27
2023-03-05T23:09:07.031Z,0.23
2023-03-05T23:14:09.033Z,0.20
2023-03-05T23:19:11.081Z,0.26
2023-03-05T23:24:13.114Z,0.30
2023-03-05T23:29:15.139Z,0.30
2023-03-05T23:34:17.145Z,0.31
2023-03-05T23:39:19.124Z,0.30
2023-03-05T23:44:21.125Z,0.19
2023-03-05T23:49:23.194Z,0.06
2023-03-05T23:54:25.247Z,-0.12
2023-03-05T23:59:27.266Z,-0.02
